Terminal Aerodrome Forecast
Issued by NWS Louisville, KY

Home | Current Version | Previous Version | Text Only | Print | Product List | Glossary On
Versions: 1 2 3 4 5 6 7 8 9 10 11 12 13 14
000
FTUS43 KLMK 231136
TAFLEX
TAF
KLEX 231136Z 2312/2412 20011KT P6SM SCT017 BKN023
     FM231600 21014G20KT P6SM SCT025 OVC035
     FM231900 22012G18KT 4SM SHRA VCTS BKN025CB OVC035
      TEMPO 2320/2324 3SM TSRA BKN013CB
     FM240200 26007KT P6SM BKN018 OVC030
     FM240700 28006KT P6SM FEW023=

USA.gov is the U.S. government's official web portal to all federal, state and local government web resources and services.